createdAt,value
2022-08-30T00:01:28.818Z,50.80
2022-08-30T00:04:32.307Z,48.00
2022-08-30T00:07:36.035Z,44.67
2022-08-30T00:10:40.942Z,49.40
2022-08-30T00:13:46.571Z,52.00
2022-08-30T00:16:51.604Z,47.75
2022-08-30T00:19:56.054Z,44.20
2022-08-30T00:22:59.836Z,50.00
2022-08-30T00:26:03.602Z,47.40
2022-08-30T00:29:06.840Z,48.25
2022-08-30T00:32:12.541Z,46.80
2022-08-30T00:35:18.506Z,45.00
2022-08-30T00:38:23.249Z,45.00
2022-08-30T00:41:26.525Z,45.00
2022-08-30T00:44:29.766Z,45.00
2022-08-30T00:47:34.435Z,47.00
2022-08-30T00:50:42.414Z,45.00
2022-08-30T00:53:49.497Z,47.00
2022-08-30T00:56:54.008Z,45.00
2022-08-30T00:59:57.741Z,42.50
2022-08-30T01:03:02.743Z,48.40
2022-08-30T01:06:07.669Z,45.40
2022-08-30T01:09:11.328Z,44.60
2022-08-30T01:12:14.941Z,46.00
2022-08-30T01:15:20.689Z,41.00
2022-08-30T01:18:26.837Z,44.25
2022-08-30T01:21:38.388Z,40.50
2022-08-30T01:24:43.426Z,43.60
2022-08-30T01:27:56.740Z,45.00
2022-08-30T01:31:00.207Z,42.00
2022-08-30T01:34:04.115Z,48.50
2022-08-30T01:37:07.393Z,45.75
2022-08-30T01:40:17.353Z,47.20
2022-08-30T01:43:20.980Z,46.50
2022-08-30T01:46:27.858Z,49.20
2022-08-30T01:49:31.450Z,48.50
2022-08-30T01:52:35.002Z,45.00
2022-08-30T01:55:40.439Z,46.00
2022-08-30T01:58:44.378Z,45.00
2022-08-30T02:01:48.023Z,40.60
2022-08-30T02:04:52.251Z,40.80
2022-08-30T02:07:55.983Z,39.00
2022-08-30T02:11:01.330Z,40.00
2022-08-30T02:14:05.200Z,45.60
2022-08-30T02:17:10.775Z,44.00
2022-08-30T02:20:14.556Z,49.20
2022-08-30T02:23:18.333Z,35.00
2022-08-30T02:26:23.963Z,36.00
2022-08-30T02:29:27.527Z,48.40
2022-08-30T02:32:30.804Z,42.60
2022-08-30T02:35:34.417Z,42.80
2022-08-30T02:38:38.161Z,49.00
2022-08-30T02:41:44.066Z,44.50
2022-08-30T02:44:47.333Z,44.00
2022-08-30T02:47:50.626Z,44.00
2022-08-30T02:50:54.401Z,46.00
2022-08-30T02:53:57.815Z,45.40
2022-08-30T02:57:05.219Z,41.60
2022-08-30T03:00:10.973Z,45.00
2022-08-30T03:03:14.259Z,45.50
2022-08-30T03:06:18.810Z,43.75
2022-08-30T03:09:22.343Z,44.00
2022-08-30T03:12:27.315Z,40.60
2022-08-30T03:15:30.537Z,44.75
2022-08-30T03:18:34.286Z,45.00
2022-08-30T03:21:38.147Z,47.00
2022-08-30T03:24:41.830Z,45.20
2022-08-30T03:27:46.876Z,46.00
2022-08-30T03:30:50.373Z,44.00
2022-08-30T03:33:53.745Z,44.75
2022-08-30T03:36:58.779Z,45.00
2022-08-30T03:40:02.926Z,47.25
2022-08-30T03:43:07.774Z,47.25
2022-08-30T03:46:12.698Z,43.00
2022-08-30T03:49:16.479Z,49.00
2022-08-30T03:52:19.804Z,50.40
2022-08-30T03:55:23.183Z,41.80
2022-08-30T03:58:27.876Z,42.60
2022-08-30T04:01:31.181Z,37.00
2022-08-30T04:04:34.539Z,31.80
2022-08-30T04:07:38.264Z,46.60
2022-08-30T04:10:41.816Z,49.60
2022-08-30T04:13:46.770Z,45.60
2022-08-30T04:16:50.888Z,47.00
2022-08-30T04:19:54.304Z,46.20
2022-08-30T04:22:57.871Z,39.60
2022-08-30T04:26:01.403Z,52.40
2022-08-30T04:29:06.246Z,52.20
2022-08-30T04:32:09.712Z,45.25
2022-08-30T04:35:15.244Z,44.00
2022-08-30T04:38:19.547Z,49.40
2022-08-30T04:41:25.967Z,44.00
2022-08-30T04:44:31.589Z,46.20
2022-08-30T04:47:34.900Z,43.60
2022-08-30T04:50:38.218Z,41.00
2022-08-30T04:53:48.485Z,51.00
2022-08-30T04:56:51.735Z,45.50
2022-08-30T04:59:57.045Z,49.60
2022-08-30T05:03:00.402Z,37.00
2022-08-30T05:06:03.692Z,44.60
2022-08-30T05:09:07.374Z,47.00
2022-08-30T05:12:10.996Z,47.60
2022-08-30T05:15:17.351Z,38.00
2022-08-30T05:18:20.847Z,48.40
2022-08-30T05:21:27.523Z,45.50
2022-08-30T05:24:32.131Z,41.40
2022-08-30T05:27:37.546Z,41.40
2022-08-30T05:30:42.419Z,38.80
2022-08-30T05:33:46.147Z,34.00
2022-08-30T05:36:49.444Z,51.50
2022-08-30T05:39:52.657Z,41.00
2022-08-30T05:42:56.031Z,47.80
2022-08-30T05:46:06.593Z,47.00
2022-08-30T05:49:10.766Z,44.33
2022-08-30T05:52:15.796Z,38.80
2022-08-30T05:55:19.810Z,38.40
2022-08-30T05:58:23.378Z,34.50
2022-08-30T06:01:31.920Z,42.80
2022-08-30T06:04:36.771Z,36.40
2022-08-30T06:07:40.153Z,41.80
2022-08-30T06:10:43.416Z,36.00
2022-08-30T06:13:48.041Z,42.50
2022-08-30T06:16:53.837Z,33.75
2022-08-30T06:19:57.090Z,37.50
2022-08-30T06:23:00.305Z,43.00
2022-08-30T06:26:06.254Z,44.80
2022-08-30T06:29:10.714Z,39.00
2022-08-30T06:32:15.409Z,41.40
2022-08-30T06:35:18.833Z,55.20
2022-08-30T06:38:22.213Z,34.80
2022-08-30T06:41:27.789Z,41.25
2022-08-30T06:44:31.092Z,33.33
2022-08-30T06:47:35.805Z,40.00
2022-08-30T06:50:39.701Z,50.50
2022-08-30T06:53:43.230Z,46.67
2022-08-30T06:56:58.065Z,45.40
2022-08-30T07:00:02.481Z,53.00
2022-08-30T07:03:07.621Z,44.60
2022-08-30T07:06:12.150Z,43.25
2022-08-30T07:09:15.496Z,48.60
2022-08-30T07:12:18.823Z,37.25
2022-08-30T07:15:23.489Z,35.60
2022-08-30T07:19:00.874Z,46.00
2022-08-30T07:22:04.458Z,41.40
2022-08-30T07:25:08.378Z,35.60
2022-08-30T07:28:12.232Z,38.00
2022-08-30T07:31:17.851Z,43.00
2022-08-30T07:34:27.443Z,29.75
2022-08-30T07:37:30.914Z,26.40
2022-08-30T07:40:34.297Z,33.80
2022-08-30T07:43:39.396Z,27.60
2022-08-30T07:46:43.167Z,41.00
2022-08-30T07:49:48.537Z,37.60
2022-08-30T07:52:51.798Z,38.00
2022-08-30T07:55:55.608Z,37.00
2022-08-30T07:59:01.510Z,29.60
2022-08-30T08:02:05.224Z,45.40
2022-08-30T08:05:16.434Z,38.00
2022-08-30T08:08:22.010Z,34.25
2022-08-30T08:11:31.662Z,33.40
2022-08-30T08:14:37.121Z,33.00
2022-08-30T08:17:40.427Z,27.00
2022-08-30T08:20:45.360Z,29.00
2022-08-30T08:23:49.486Z,22.60
2022-08-30T08:26:52.808Z,24.20
2022-08-30T08:29:56.125Z,20.00
2022-08-30T08:32:59.819Z,30.20
2022-08-30T08:36:08.814Z,21.00
2022-08-30T08:39:12.932Z,25.60
2022-08-30T08:42:25.165Z,27.00
2022-08-30T08:45:49.310Z,31.20
2022-08-30T08:49:00.688Z,26.40
2022-08-30T08:52:25.795Z,25.75
2022-08-30T08:55:30.997Z,17.33
2022-08-30T08:58:44.026Z,16.50
2022-08-30T09:01:48.721Z,15.20
2022-08-30T09:04:55.199Z,15.00
2022-08-30T09:08:06.603Z,11.80
2022-08-30T09:11:19.611Z,15.00
2022-08-30T09:14:35.397Z,13.80
2022-08-30T09:17:54.389Z,11.25
2022-08-30T09:21:10.144Z,13.00
2022-08-30T09:24:17.662Z,9.00
2022-08-30T09:27:32.358Z,11.00
2022-08-30T09:30:35.726Z,14.00
2022-08-30T09:33:39.591Z,14.00
2022-08-30T09:36:45.083Z,11.00
2022-08-30T09:39:50.218Z,13.40
2022-08-30T09:43:06.251Z,12.20
2022-08-30T09:46:16.344Z,16.60
2022-08-30T09:49:31.152Z,13.25
2022-08-30T09:52:57.619Z,22.00
2022-08-30T09:56:10.213Z,23.20
2022-08-30T09:59:31.120Z,23.00
2022-08-30T10:02:58.743Z,14.60
2022-08-30T10:06:11.720Z,14.40
2022-08-30T10:09:27.322Z,13.00
2022-08-30T10:12:42.377Z,13.50
2022-08-30T10:15:52.849Z,14.00
2022-08-30T10:19:07.291Z,12.40
2022-08-30T10:22:17.118Z,13.80
2022-08-30T10:25:24.870Z,13.00
2022-08-30T10:28:38.922Z,16.00
2022-08-30T10:31:47.546Z,19.50
2022-08-30T10:34:55.719Z,17.00
2022-08-30T10:38:05.964Z,17.20
2022-08-30T10:41:23.384Z,17.00
2022-08-30T10:44:32.433Z,13.00
2022-08-30T10:47:41.795Z,11.50
2022-08-30T10:50:49.990Z,12.00
2022-08-30T10:53:58.017Z,11.60
2022-08-30T10:57:01.635Z,13.00
2022-08-30T11:00:10.335Z,15.00
2022-08-30T11:03:40.253Z,11.00
2022-08-30T11:06:54.988Z,13.25
2022-08-30T11:10:15.456Z,14.00
2022-08-30T11:13:24.263Z,15.00
2022-08-30T11:16:38.680Z,13.75
2022-08-30T11:19:42.815Z,13.00
2022-08-30T11:23:18.205Z,13.00
2022-08-30T11:26:52.668Z,14.25
2022-08-30T11:29:56.080Z,11.00
2022-08-30T11:33:08.892Z,14.00
2022-08-30T11:36:46.048Z,14.60
2022-08-30T11:40:03.921Z,16.50
2022-08-30T11:43:43.535Z,16.00
2022-08-30T11:46:47.803Z,15.00
2022-08-30T11:50:11.023Z,17.00
2022-08-30T11:53:26.408Z,13.40
2022-08-30T11:56:45.224Z,15.40
2022-08-30T12:00:00.300Z,13.00
2022-08-30T12:03:06.310Z,13.00
2022-08-30T12:06:12.994Z,13.20
2022-08-30T12:10:06.576Z,13.00
2022-08-30T12:13:11.249Z,14.00
2022-08-30T12:16:19.928Z,14.50
2022-08-30T12:19:24.241Z,12.50
2022-08-30T12:22:30.662Z,12.00
2022-08-30T12:25:35.447Z,14.00
2022-08-30T12:28:38.907Z,14.25
2022-08-30T12:31:49.145Z,14.00
2022-08-30T12:34:55.090Z,12.75
2022-08-30T12:38:02.831Z,13.80
2022-08-30T12:41:06.484Z,11.20
2022-08-30T12:44:16.424Z,13.00
2022-08-30T12:47:23.992Z,12.40
2022-08-30T12:50:31.489Z,12.40
2022-08-30T12:53:42.022Z,14.00
2022-08-30T12:57:19.095Z,13.50
2022-08-30T13:00:27.364Z,11.00
2022-08-30T13:03:37.141Z,11.00
2022-08-30T13:06:49.733Z,13.00
2022-08-30T13:10:02.715Z,14.00
2022-08-30T13:13:07.809Z,13.00
2022-08-30T13:16:21.680Z,15.00
2022-08-30T13:19:37.231Z,13.00
2022-08-30T13:22:42.416Z,14.25
2022-08-30T13:25:47.164Z,12.60
2022-08-30T13:28:55.743Z,15.40
2022-08-30T13:31:59.345Z,14.00
2022-08-30T13:35:02.778Z,13.00
2022-08-30T13:38:06.119Z,16.00
2022-08-30T13:41:10.985Z,11.40
2022-08-30T13:44:15.715Z,11.60
2022-08-30T13:47:37.189Z,11.00
2022-08-30T13:50:40.822Z,10.00
2022-08-30T13:53:59.253Z,10.60
2022-08-30T13:57:04.343Z,11.75
2022-08-30T14:00:12.242Z,14.00
2022-08-30T14:03:16.949Z,11.00
2022-08-30T14:06:33.720Z,16.00
2022-08-30T14:09:37.849Z,11.25
2022-08-30T14:13:07.770Z,14.00
2022-08-30T14:19:32.345Z,12.50
2022-08-30T14:22:35.708Z,13.50
2022-08-30T14:25:40.815Z,11.00
2022-08-30T14:28:46.080Z,11.00
2022-08-30T14:31:55.096Z,13.00
2022-08-30T14:34:58.772Z,12.00
2022-08-30T14:38:02.175Z,14.00
2022-08-30T14:41:05.705Z,12.00
2022-08-30T14:44:11.199Z,13.00
2022-08-30T14:47:14.444Z,15.60
2022-08-30T14:50:18.050Z,14.00
2022-08-30T14:53:21.300Z,16.00
2022-08-30T14:56:25.048Z,10.80
2022-08-30T14:59:29.785Z,15.00
2022-08-30T15:02:33.096Z,9.25
2022-08-30T15:05:36.560Z,7.20
2022-08-30T15:08:40.804Z,10.00
2022-08-30T15:11:44.685Z,7.67
2022-08-30T15:14:51.618Z,10.50
2022-08-30T15:17:55.064Z,10.00
2022-08-30T15:20:58.656Z,12.00
2022-08-30T15:24:04.489Z,13.00
2022-08-30T15:27:08.364Z,13.60
2022-08-30T15:30:15.243Z,10.00
2022-08-30T15:33:18.671Z,11.00
2022-08-30T15:36:22.083Z,12.00
2022-08-30T15:39:25.475Z,7.20
2022-08-30T15:42:28.655Z,10.00
2022-08-30T15:45:33.333Z,12.00
2022-08-30T15:48:41.790Z,9.00
2022-08-30T15:51:51.590Z,15.00
2022-08-30T15:54:57.932Z,11.40
2022-08-30T15:58:01.207Z,13.40
2022-08-30T16:01:07.564Z,12.00
2022-08-30T16:04:11.325Z,9.00
2022-08-30T16:07:15.971Z,14.50
2022-08-30T16:10:19.889Z,12.40
2022-08-30T16:13:23.174Z,13.60
2022-08-30T16:16:28.066Z,21.80
2022-08-30T16:19:31.825Z,11.25
2022-08-30T16:22:35.670Z,9.20
2022-08-30T16:25:40.628Z,12.75
2022-08-30T16:28:45.165Z,12.00
2022-08-30T16:31:50.187Z,15.00
2022-08-30T16:34:53.887Z,18.00
2022-08-30T16:37:57.518Z,10.50
2022-08-30T16:41:04.737Z,29.40
2022-08-30T16:44:08.731Z,16.75
2022-08-30T16:47:16.187Z,17.00
2022-08-30T16:50:21.598Z,32.33
2022-08-30T16:53:25.587Z,34.75
2022-08-30T16:56:31.030Z,27.50
2022-08-30T16:59:34.259Z,21.00
2022-08-30T17:02:39.783Z,27.80
2022-08-30T17:05:43.420Z,27.25
2022-08-30T17:08:48.678Z,27.20
2022-08-30T17:11:59.213Z,19.00
2022-08-30T17:15:05.587Z,22.75
2022-08-30T17:18:10.568Z,32.00
2022-08-30T17:21:13.916Z,35.40
2022-08-30T17:24:17.267Z,34.40
2022-08-30T17:27:20.895Z,31.40
2022-08-30T17:30:24.463Z,34.60
2022-08-30T17:33:29.184Z,33.60
2022-08-30T17:36:36.194Z,28.25
2022-08-30T17:39:40.157Z,30.40
2022-08-30T17:42:44.749Z,30.80
2022-08-30T17:45:48.029Z,40.00
2022-08-30T17:48:57.604Z,30.60
2022-08-30T17:52:05.618Z,29.80
2022-08-30T17:55:09.732Z,33.00
2022-08-30T17:58:13.576Z,37.20
2022-08-30T18:01:18.858Z,34.80
2022-08-30T18:04:26.127Z,42.00
2022-08-30T18:07:30.048Z,41.60
2022-08-30T18:10:34.647Z,40.00
2022-08-30T18:13:38.574Z,41.00
2022-08-30T18:16:52.483Z,36.20
2022-08-30T18:19:58.887Z,39.40
2022-08-30T18:23:06.013Z,37.00
2022-08-30T18:26:12.039Z,39.00
2022-08-30T18:29:26.027Z,43.00
2022-08-30T18:32:36.380Z,35.20
2022-08-30T18:35:47.572Z,27.00
2022-08-30T18:38:52.005Z,45.00
2022-08-30T18:41:57.068Z,41.00
2022-08-30T18:45:11.480Z,44.60
2022-08-30T18:48:24.285Z,38.50
2022-08-30T18:51:32.153Z,33.60
2022-08-30T18:54:40.422Z,32.50
2022-08-30T18:57:44.759Z,42.75
2022-08-30T19:00:49.024Z,41.80
2022-08-30T19:03:52.349Z,31.00
2022-08-30T19:06:57.273Z,28.20
2022-08-30T19:10:01.033Z,34.80
2022-08-30T19:13:04.882Z,30.60
2022-08-30T19:16:09.331Z,39.40
2022-08-30T19:19:15.865Z,38.25
2022-08-30T19:22:22.451Z,29.60
2022-08-30T19:25:27.277Z,35.00
2022-08-30T19:28:34.267Z,32.00
2022-08-30T19:31:37.614Z,31.00
2022-08-30T19:34:42.874Z,38.00
2022-08-30T19:37:47.541Z,38.80
2022-08-30T19:40:54.566Z,39.20
2022-08-30T19:43:58.347Z,41.60
2022-08-30T19:47:05.330Z,34.00
2022-08-30T19:50:09.762Z,35.00
2022-08-30T19:53:14.792Z,36.00
2022-08-30T19:56:18.053Z,48.60
2022-08-30T19:59:21.385Z,38.25
2022-08-30T20:02:25.803Z,50.00
2022-08-30T20:05:31.217Z,37.60
2022-08-30T20:08:35.914Z,39.80
2022-08-30T20:11:42.239Z,41.50
2022-08-30T20:14:47.406Z,44.00
2022-08-30T20:18:05.020Z,43.75
2022-08-30T20:21:13.611Z,34.20
2022-08-30T20:24:18.904Z,36.75
2022-08-30T20:27:22.354Z,35.40
2022-08-30T20:30:25.651Z,32.25
2022-08-30T20:33:30.895Z,31.00
2022-08-30T20:36:34.861Z,39.40
2022-08-30T20:39:39.563Z,37.25
2022-08-30T20:42:44.575Z,37.40
2022-08-30T20:45:48.752Z,37.00
2022-08-30T20:48:52.877Z,36.00
2022-08-30T20:51:56.198Z,40.00
2022-08-30T20:55:01.624Z,40.40
2022-08-30T20:58:04.938Z,34.00
2022-08-30T21:01:10.772Z,43.40
2022-08-30T21:04:14.383Z,35.25
2022-08-30T21:07:17.929Z,38.00
2022-08-30T21:10:23.682Z,40.20
2022-08-30T21:13:27.055Z,38.40
2022-08-30T21:16:31.232Z,36.00
2022-08-30T21:19:34.620Z,43.00
2022-08-30T21:22:38.394Z,37.00
2022-08-30T21:25:44.494Z,40.00
2022-08-30T21:28:49.136Z,35.75
2022-08-30T21:31:52.810Z,37.50
2022-08-30T21:35:13.466Z,30.40
2022-08-30T21:38:17.870Z,39.60
2022-08-30T21:41:22.969Z,52.00
2022-08-30T21:44:30.324Z,37.40
2022-08-30T21:47:34.164Z,38.60
2022-08-30T21:50:40.177Z,40.25
2022-08-30T21:53:43.519Z,43.00
2022-08-30T21:56:50.251Z,29.67
2022-08-30T21:59:53.762Z,39.00
2022-08-30T22:02:57.136Z,40.40
2022-08-30T22:06:00.498Z,42.20
2022-08-30T22:09:07.041Z,40.75
2022-08-30T22:12:12.036Z,40.80
2022-08-30T22:15:15.274Z,38.33
2022-08-30T22:18:20.185Z,43.33
2022-08-30T22:21:25.917Z,44.40
2022-08-30T22:24:32.078Z,38.00
2022-08-30T22:27:37.661Z,42.00
2022-08-30T22:30:40.955Z,60.20
2022-08-30T22:33:45.818Z,50.40
2022-08-30T22:36:49.053Z,44.25
2022-08-30T22:39:52.588Z,41.60
2022-08-30T22:42:57.601Z,42.60
2022-08-30T22:46:01.603Z,41.50
2022-08-30T22:49:06.203Z,44.00
2022-08-30T22:52:09.519Z,40.75
2022-08-30T22:55:12.982Z,50.80
2022-08-30T22:58:19.044Z,40.50
2022-08-30T23:01:25.228Z,47.00
2022-08-30T23:04:28.762Z,50.00
2022-08-30T23:07:32.506Z,41.00
2022-08-30T23:10:36.868Z,40.60
2022-08-30T23:13:42.294Z,45.00
2022-08-30T23:16:45.672Z,46.00
2022-08-30T23:19:49.670Z,44.25
2022-08-30T23:23:01.047Z,41.00
2022-08-30T23:26:22.218Z,38.40
2022-08-30T23:29:45.198Z,47.00
2022-08-30T23:33:05.659Z,42.00
2022-08-30T23:36:27.646Z,46.80
2022-08-30T23:39:48.009Z,46.20
2022-08-30T23:43:09.249Z,40.50
2022-08-30T23:46:31.971Z,44.40
2022-08-30T23:49:52.497Z,45.50
2022-08-30T23:53:13.434Z,46.60
2022-08-30T23:56:34.387Z,41.25
2022-08-30T23:59:55.407Z,43.00
